sensor_id;sensor_type;location;lat;lon;timestamp;P1;durP1;ratioP1;P2;durP2;ratioP2
1136;SDS011;557;48.466;7.950;2023-07-20T00:00:02;19.40;;;18.30;;
1136;SDS011;557;48.466;7.950;2023-07-20T00:02:50;20.27;;;19.07;;
1136;SDS011;557;48.466;7.950;2023-07-20T00:05:38;20.37;;;19.17;;
1136;SDS011;557;48.466;7.950;2023-07-20T00:08:27;19.90;;;18.70;;
1136;SDS011;557;48.466;7.950;2023-07-20T00:11:14;19.40;;;18.40;;
1136;SDS011;557;48.466;7.950;2023-07-20T00:14:02;20.10;;;18.90;;
1136;SDS011;557;48.466;7.950;2023-07-20T00:16:50;20.23;;;18.90;;
1136;SDS011;557;48.466;7.950;2023-07-20T00:19:41;20.30;;;19.03;;
1136;SDS011;557;48.466;7.950;2023-07-20T00:22:28;20.00;;;18.80;;
1136;SDS011;557;48.466;7.950;2023-07-20T00:25:17;19.97;;;18.87;;
1136;SDS011;557;48.466;7.950;2023-07-20T00:28:04;20.30;;;19.10;;
1136;SDS011;557;48.466;7.950;2023-07-20T00:30:52;19.30;;;18.20;;
1136;SDS011;557;48.466;7.950;2023-07-20T00:33:39;20.30;;;18.90;;
1136;SDS011;557;48.466;7.950;2023-07-20T00:36:26;19.90;;;18.70;;
1136;SDS011;557;48.466;7.950;2023-07-20T00:39:14;19.50;;;18.40;;
1136;SDS011;557;48.466;7.950;2023-07-20T00:42:02;19.70;;;18.60;;
1136;SDS011;557;48.466;7.950;2023-07-20T00:44:50;18.83;;;17.83;;
1136;SDS011;557;48.466;7.950;2023-07-20T00:47:37;19.10;;;17.80;;
1136;SDS011;557;48.466;7.950;2023-07-20T00:50:25;19.40;;;18.30;;
1136;SDS011;557;48.466;7.950;2023-07-20T00:53:14;19.87;;;18.67;;
1136;SDS011;557;48.466;7.950;2023-07-20T00:56:01;20.10;;;18.90;;
1136;SDS011;557;48.466;7.950;2023-07-20T00:58:50;19.30;;;18.20;;
1136;SDS011;557;48.466;7.950;2023-07-20T01:01:38;19.50;;;18.40;;
1136;SDS011;557;48.466;7.950;2023-07-20T01:04:26;19.60;;;18.50;;
1136;SDS011;557;48.466;7.950;2023-07-20T01:07:14;19.23;;;18.10;;
1136;SDS011;557;48.466;7.950;2023-07-20T01:10:10;19.53;;;18.33;;
1136;SDS011;557;48.466;7.950;2023-07-20T01:13:03;19.60;;;18.30;;
1136;SDS011;557;48.466;7.950;2023-07-20T01:15:56;19.23;;;18.10;;
1136;SDS011;557;48.466;7.950;2023-07-20T01:18:45;19.30;;;17.90;;
1136;SDS011;557;48.466;7.950;2023-07-20T01:21:34;18.67;;;17.57;;
1136;SDS011;557;48.466;7.950;2023-07-20T01:24:52;19.73;;;18.23;;
1136;SDS011;557;48.466;7.950;2023-07-20T01:27:57;19.07;;;17.87;;
1136;SDS011;557;48.466;7.950;2023-07-20T01:31:14;19.13;;;17.93;;
1136;SDS011;557;48.466;7.950;2023-07-20T01:34:08;18.87;;;17.70;;
1136;SDS011;557;48.466;7.950;2023-07-20T01:36:58;19.20;;;18.10;;
1136;SDS011;557;48.466;7.950;2023-07-20T01:39:47;19.00;;;17.80;;
1136;SDS011;557;48.466;7.950;2023-07-20T01:42:34;18.60;;;17.50;;
1136;SDS011;557;48.466;7.950;2023-07-20T01:45:22;18.40;;;17.20;;
1136;SDS011;557;48.466;7.950;2023-07-20T01:48:10;18.27;;;16.93;;
1136;SDS011;557;48.466;7.950;2023-07-20T01:50:58;18.40;;;17.20;;
1136;SDS011;557;48.466;7.950;2023-07-20T01:53:45;19.40;;;18.20;;
1136;SDS011;557;48.466;7.950;2023-07-20T01:56:32;18.30;;;17.20;;
1136;SDS011;557;48.466;7.950;2023-07-20T01:59:20;18.03;;;16.93;;
1136;SDS011;557;48.466;7.950;2023-07-20T02:02:07;17.70;;;16.70;;
1136;SDS011;557;48.466;7.950;2023-07-20T02:04:56;17.30;;;16.30;;
1136;SDS011;557;48.466;7.950;2023-07-20T02:07:43;17.23;;;16.23;;
1136;SDS011;557;48.466;7.950;2023-07-20T02:10:31;16.93;;;16.03;;
1136;SDS011;557;48.466;7.950;2023-07-20T02:13:18;17.20;;;16.10;;
1136;SDS011;557;48.466;7.950;2023-07-20T02:16:05;16.90;;;15.80;;
1136;SDS011;557;48.466;7.950;2023-07-20T02:18:53;16.20;;;15.10;;
1136;SDS011;557;48.466;7.950;2023-07-20T02:21:43;16.33;;;15.33;;
1136;SDS011;557;48.466;7.950;2023-07-20T02:24:31;16.90;;;15.80;;
1136;SDS011;557;48.466;7.950;2023-07-20T02:27:19;16.90;;;15.70;;
1136;SDS011;557;48.466;7.950;2023-07-20T02:30:06;16.23;;;15.30;;
1136;SDS011;557;48.466;7.950;2023-07-20T02:32:54;16.73;;;15.53;;
1136;SDS011;557;48.466;7.950;2023-07-20T02:35:45;15.57;;;14.63;;
1136;SDS011;557;48.466;7.950;2023-07-20T02:38:33;16.20;;;15.17;;
1136;SDS011;557;48.466;7.950;2023-07-20T02:41:21;15.70;;;14.80;;
1136;SDS011;557;48.466;7.950;2023-07-20T02:44:08;16.50;;;15.30;;
1136;SDS011;557;48.466;7.950;2023-07-20T02:46:55;16.50;;;15.40;;
1136;SDS011;557;48.466;7.950;2023-07-20T02:49:43;15.90;;;14.90;;
1136;SDS011;557;48.466;7.950;2023-07-20T02:52:30;16.07;;;15.07;;
1136;SDS011;557;48.466;7.950;2023-07-20T02:55:18;15.73;;;14.83;;
1136;SDS011;557;48.466;7.950;2023-07-20T02:58:06;15.33;;;14.43;;
1136;SDS011;557;48.466;7.950;2023-07-20T03:00:53;15.63;;;14.63;;
1136;SDS011;557;48.466;7.950;2023-07-20T03:03:41;16.07;;;14.97;;
1136;SDS011;557;48.466;7.950;2023-07-20T03:06:32;15.57;;;14.57;;
1136;SDS011;557;48.466;7.950;2023-07-20T03:09:22;15.30;;;14.37;;
1136;SDS011;557;48.466;7.950;2023-07-20T03:12:11;16.07;;;14.87;;
1136;SDS011;557;48.466;7.950;2023-07-20T03:14:58;15.20;;;14.30;;
1136;SDS011;557;48.466;7.950;2023-07-20T03:17:46;15.60;;;14.70;;
1136;SDS011;557;48.466;7.950;2023-07-20T03:20:34;15.30;;;14.43;;
1136;SDS011;557;48.466;7.950;2023-07-20T03:23:22;16.40;;;15.40;;
1136;SDS011;557;48.466;7.950;2023-07-20T03:26:10;15.70;;;14.70;;
1136;SDS011;557;48.466;7.950;2023-07-20T03:28:58;17.17;;;15.90;;
1136;SDS011;557;48.466;7.950;2023-07-20T03:31:46;14.40;;;13.60;;
1136;SDS011;557;48.466;7.950;2023-07-20T03:34:33;15.50;;;14.70;;
1136;SDS011;557;48.466;7.950;2023-07-20T03:37:21;16.83;;;15.50;;
1136;SDS011;557;48.466;7.950;2023-07-20T03:40:08;15.83;;;14.83;;
1136;SDS011;557;48.466;7.950;2023-07-20T03:42:56;15.97;;;15.17;;
1136;SDS011;557;48.466;7.950;2023-07-20T03:45:45;17.00;;;15.70;;
1136;SDS011;557;48.466;7.950;2023-07-20T03:48:33;15.73;;;14.80;;
1136;SDS011;557;48.466;7.950;2023-07-20T03:51:21;15.27;;;14.23;;
1136;SDS011;557;48.466;7.950;2023-07-20T03:54:08;16.10;;;15.00;;
1136;SDS011;557;48.466;7.950;2023-07-20T03:56:56;15.37;;;14.57;;
1136;SDS011;557;48.466;7.950;2023-07-20T03:59:44;15.10;;;14.30;;
1136;SDS011;557;48.466;7.950;2023-07-20T04:02:33;15.07;;;14.17;;
1136;SDS011;557;48.466;7.950;2023-07-20T04:05:20;14.90;;;14.00;;
1136;SDS011;557;48.466;7.950;2023-07-20T04:08:08;15.47;;;14.30;;
1136;SDS011;557;48.466;7.950;2023-07-20T04:10:56;14.70;;;13.90;;
1136;SDS011;557;48.466;7.950;2023-07-20T04:13:43;15.50;;;14.50;;
1136;SDS011;557;48.466;7.950;2023-07-20T04:16:31;15.30;;;14.30;;
1136;SDS011;557;48.466;7.950;2023-07-20T04:19:20;16.20;;;15.00;;
1136;SDS011;557;48.466;7.950;2023-07-20T04:22:07;15.23;;;14.33;;
1136;SDS011;557;48.466;7.950;2023-07-20T04:24:55;14.70;;;13.90;;
1136;SDS011;557;48.466;7.950;2023-07-20T04:27:42;15.33;;;14.43;;
1136;SDS011;557;48.466;7.950;2023-07-20T04:30:29;15.63;;;14.73;;
1136;SDS011;557;48.466;7.950;2023-07-20T04:33:16;15.60;;;14.67;;
1136;SDS011;557;48.466;7.950;2023-07-20T04:36:05;15.40;;;14.50;;
1136;SDS011;557;48.466;7.950;2023-07-20T04:38:53;15.23;;;14.40;;
1136;SDS011;557;48.466;7.950;2023-07-20T04:41:40;15.20;;;14.40;;
1136;SDS011;557;48.466;7.950;2023-07-20T04:44:28;15.70;;;14.60;;
1136;SDS011;557;48.466;7.950;2023-07-20T04:47:15;15.20;;;14.40;;
1136;SDS011;557;48.466;7.950;2023-07-20T04:50:03;15.50;;;14.50;;
1136;SDS011;557;48.466;7.950;2023-07-20T04:52:52;14.93;;;14.13;;
1136;SDS011;557;48.466;7.950;2023-07-20T04:55:40;14.20;;;13.40;;
1136;SDS011;557;48.466;7.950;2023-07-20T04:58:35;14.60;;;13.70;;
1136;SDS011;557;48.466;7.950;2023-07-20T05:01:23;14.87;;;13.90;;
1136;SDS011;557;48.466;7.950;2023-07-20T05:04:12;14.50;;;13.80;;
1136;SDS011;557;48.466;7.950;2023-07-20T05:06:59;14.43;;;13.57;;
1136;SDS011;557;48.466;7.950;2023-07-20T05:09:48;14.40;;;13.60;;
1136;SDS011;557;48.466;7.950;2023-07-20T05:12:35;13.90;;;13.20;;
1136;SDS011;557;48.466;7.950;2023-07-20T05:15:22;14.87;;;13.87;;
1136;SDS011;557;48.466;7.950;2023-07-20T05:18:09;13.87;;;13.17;;
1136;SDS011;557;48.466;7.950;2023-07-20T05:20:57;14.67;;;13.87;;
1136;SDS011;557;48.466;7.950;2023-07-20T05:23:44;14.30;;;13.40;;
1136;SDS011;557;48.466;7.950;2023-07-20T05:26:33;14.80;;;13.90;;
1136;SDS011;557;48.466;7.950;2023-07-20T05:29:20;14.00;;;13.20;;
1136;SDS011;557;48.466;7.950;2023-07-20T05:32:07;14.80;;;13.80;;
1136;SDS011;557;48.466;7.950;2023-07-20T05:34:55;14.20;;;13.40;;
1136;SDS011;557;48.466;7.950;2023-07-20T05:37:43;15.53;;;14.63;;
1136;SDS011;557;48.466;7.950;2023-07-20T05:40:30;15.63;;;14.83;;
1136;SDS011;557;48.466;7.950;2023-07-20T05:43:19;16.97;;;15.87;;
1136;SDS011;557;48.466;7.950;2023-07-20T05:46:06;15.63;;;14.80;;
1136;SDS011;557;48.466;7.950;2023-07-20T05:48:53;16.10;;;15.10;;
1136;SDS011;557;48.466;7.950;2023-07-20T05:51:41;15.90;;;14.87;;
1136;SDS011;557;48.466;7.950;2023-07-20T05:54:28;15.83;;;14.63;;
1136;SDS011;557;48.466;7.950;2023-07-20T05:57:15;16.00;;;15.07;;
1136;SDS011;557;48.466;7.950;2023-07-20T06:00:06;16.20;;;15.30;;
1136;SDS011;557;48.466;7.950;2023-07-20T06:02:54;15.80;;;14.80;;
1136;SDS011;557;48.466;7.950;2023-07-20T06:05:41;15.27;;;14.47;;
1136;SDS011;557;48.466;7.950;2023-07-20T06:08:29;16.33;;;15.20;;
1136;SDS011;557;48.466;7.950;2023-07-20T06:11:16;15.80;;;14.80;;
1136;SDS011;557;48.466;7.950;2023-07-20T06:14:04;15.47;;;14.57;;
1136;SDS011;557;48.466;7.950;2023-07-20T06:16:53;15.57;;;14.67;;
1136;SDS011;557;48.466;7.950;2023-07-20T06:19:40;15.70;;;14.80;;
1136;SDS011;557;48.466;7.950;2023-07-20T06:22:28;15.80;;;14.73;;
1136;SDS011;557;48.466;7.950;2023-07-20T06:25:15;16.97;;;15.70;;
1136;SDS011;557;48.466;7.950;2023-07-20T06:28:02;15.93;;;15.03;;
1136;SDS011;557;48.466;7.950;2023-07-20T06:30:50;16.13;;;15.07;;
1136;SDS011;557;48.466;7.950;2023-07-20T06:33:39;16.30;;;15.20;;
1136;SDS011;557;48.466;7.950;2023-07-20T06:36:26;16.40;;;15.40;;
1136;SDS011;557;48.466;7.950;2023-07-20T06:39:14;17.77;;;16.47;;
1136;SDS011;557;48.466;7.950;2023-07-20T06:42:01;17.57;;;16.40;;
1136;SDS011;557;48.466;7.950;2023-07-20T06:44:49;17.07;;;16.13;;
1136;SDS011;557;48.466;7.950;2023-07-20T06:47:37;17.10;;;16.10;;
1136;SDS011;557;48.466;7.950;2023-07-20T06:50:26;17.60;;;16.50;;
1136;SDS011;557;48.466;7.950;2023-07-20T06:53:13;17.70;;;16.60;;
1136;SDS011;557;48.466;7.950;2023-07-20T06:56:01;18.63;;;17.53;;
1136;SDS011;557;48.466;7.950;2023-07-20T06:58:48;18.33;;;17.03;;
1136;SDS011;557;48.466;7.950;2023-07-20T07:01:37;17.77;;;16.77;;
1136;SDS011;557;48.466;7.950;2023-07-20T07:04:24;17.70;;;16.70;;
1136;SDS011;557;48.466;7.950;2023-07-20T07:07:14;19.47;;;18.27;;
1136;SDS011;557;48.466;7.950;2023-07-20T07:10:02;18.50;;;17.00;;
1136;SDS011;557;48.466;7.950;2023-07-20T07:12:50;17.90;;;16.90;;
1136;SDS011;557;48.466;7.950;2023-07-20T07:15:37;17.73;;;16.73;;
1136;SDS011;557;48.466;7.950;2023-07-20T07:18:25;18.47;;;17.40;;
1136;SDS011;557;48.466;7.950;2023-07-20T07:21:12;18.83;;;17.70;;
1136;SDS011;557;48.466;7.950;2023-07-20T07:24:01;19.00;;;17.90;;
1136;SDS011;557;48.466;7.950;2023-07-20T07:26:49;19.00;;;17.90;;
1136;SDS011;557;48.466;7.950;2023-07-20T07:29:36;17.40;;;16.50;;
1136;SDS011;557;48.466;7.950;2023-07-20T07:32:24;19.00;;;17.77;;
1136;SDS011;557;48.466;7.950;2023-07-20T07:35:12;18.30;;;17.30;;
1136;SDS011;557;48.466;7.950;2023-07-20T07:37:59;18.97;;;17.90;;
1136;SDS011;557;48.466;7.950;2023-07-20T07:40:48;19.10;;;17.90;;
1136;SDS011;557;48.466;7.950;2023-07-20T07:43:35;18.60;;;17.60;;
1136;SDS011;557;48.466;7.950;2023-07-20T07:46:23;19.33;;;18.13;;
1136;SDS011;557;48.466;7.950;2023-07-20T07:49:11;19.17;;;17.97;;
1136;SDS011;557;48.466;7.950;2023-07-20T07:51:58;20.80;;;19.50;;
1136;SDS011;557;48.466;7.950;2023-07-20T07:54:47;19.15;;;18.05;;
1136;SDS011;557;48.466;7.950;2023-07-20T07:57:36;19.30;;;18.15;;
1136;SDS011;557;48.466;7.950;2023-07-20T08:00:24;19.25;;;18.15;;
1136;SDS011;557;48.466;7.950;2023-07-20T08:03:11;19.58;;;18.20;;
1136;SDS011;557;48.466;7.950;2023-07-20T08:05:58;19.73;;;18.42;;
1136;SDS011;557;48.466;7.950;2023-07-20T08:08:46;21.10;;;19.63;;
1136;SDS011;557;48.466;7.950;2023-07-20T08:11:33;18.88;;;17.80;;
1136;SDS011;557;48.466;7.950;2023-07-20T08:14:22;21.48;;;19.88;;
1136;SDS011;557;48.466;7.950;2023-07-20T08:17:09;19.88;;;18.58;;
1136;SDS011;557;48.466;7.950;2023-07-20T08:19:57;20.08;;;18.88;;
1136;SDS011;557;48.466;7.950;2023-07-20T08:22:48;20.67;;;19.40;;
1136;SDS011;557;48.466;7.950;2023-07-20T08:25:37;20.08;;;18.85;;
1136;SDS011;557;48.466;7.950;2023-07-20T08:28:27;20.38;;;19.05;;
1136;SDS011;557;48.466;7.950;2023-07-20T08:31:16;20.48;;;19.23;;
1136;SDS011;557;48.466;7.950;2023-07-20T08:34:03;20.27;;;18.85;;
1136;SDS011;557;48.466;7.950;2023-07-20T08:36:50;20.10;;;18.80;;
1136;SDS011;557;48.466;7.950;2023-07-20T08:39:38;20.23;;;18.92;;
1136;SDS011;557;48.466;7.950;2023-07-20T08:42:25;20.00;;;18.80;;
1136;SDS011;557;48.466;7.950;2023-07-20T08:45:14;19.08;;;18.02;;
1136;SDS011;557;48.466;7.950;2023-07-20T08:48:05;19.10;;;18.10;;
1136;SDS011;557;48.466;7.950;2023-07-20T08:50:53;20.10;;;18.90;;
1136;SDS011;557;48.466;7.950;2023-07-20T08:53:42;20.58;;;19.20;;
1136;SDS011;557;48.466;7.950;2023-07-20T08:56:32;19.60;;;18.60;;
1136;SDS011;557;48.466;7.950;2023-07-20T08:59:21;18.47;;;17.47;;
1136;SDS011;557;48.466;7.950;2023-07-20T09:02:11;18.70;;;17.60;;
1136;SDS011;557;48.466;7.950;2023-07-20T09:05:06;19.00;;;17.80;;
1136;SDS011;557;48.466;7.950;2023-07-20T09:07:55;18.30;;;17.30;;
1136;SDS011;557;48.466;7.950;2023-07-20T09:10:42;18.60;;;17.60;;
1136;SDS011;557;48.466;7.950;2023-07-20T09:13:29;19.40;;;18.10;;
1136;SDS011;557;48.466;7.950;2023-07-20T09:16:18;19.13;;;18.13;;
1136;SDS011;557;48.466;7.950;2023-07-20T09:19:05;18.83;;;17.80;;
1136;SDS011;557;48.466;7.950;2023-07-20T09:21:55;18.45;;;17.35;;
1136;SDS011;557;48.466;7.950;2023-07-20T09:24:42;19.17;;;17.92;;
1136;SDS011;557;48.466;7.950;2023-07-20T09:27:34;19.52;;;18.42;;
1136;SDS011;557;48.466;7.950;2023-07-20T09:30:25;19.42;;;18.23;;
1136;SDS011;557;48.466;7.950;2023-07-20T09:33:18;19.45;;;18.27;;
1136;SDS011;557;48.466;7.950;2023-07-20T09:36:05;20.02;;;18.85;;
1136;SDS011;557;48.466;7.950;2023-07-20T09:38:54;19.92;;;18.83;;
1136;SDS011;557;48.466;7.950;2023-07-20T09:41:41;19.95;;;18.75;;
1136;SDS011;557;48.466;7.950;2023-07-20T09:44:29;20.10;;;18.92;;
1136;SDS011;557;48.466;7.950;2023-07-20T09:47:21;20.27;;;19.00;;
1136;SDS011;557;48.466;7.950;2023-07-20T09:50:09;20.80;;;19.60;;
1136;SDS011;557;48.466;7.950;2023-07-20T09:52:57;20.50;;;19.15;;
1136;SDS011;557;48.466;7.950;2023-07-20T09:55:48;20.02;;;18.83;;
1136;SDS011;557;48.466;7.950;2023-07-20T09:58:35;20.23;;;19.13;;
1136;SDS011;557;48.466;7.950;2023-07-20T10:01:23;19.23;;;18.13;;
1136;SDS011;557;48.466;7.950;2023-07-20T10:04:14;20.00;;;18.73;;
1136;SDS011;557;48.466;7.950;2023-07-20T10:07:05;20.53;;;18.90;;
1136;SDS011;557;48.466;7.950;2023-07-20T10:09:58;19.17;;;18.17;;
1136;SDS011;557;48.466;7.950;2023-07-20T10:12:50;20.10;;;18.80;;
1136;SDS011;557;48.466;7.950;2023-07-20T10:15:40;19.88;;;18.67;;
1136;SDS011;557;48.466;7.950;2023-07-20T10:18:34;19.45;;;18.35;;
1136;SDS011;557;48.466;7.950;2023-07-20T10:21:28;20.00;;;18.90;;
1136;SDS011;557;48.466;7.950;2023-07-20T10:24:16;18.95;;;17.95;;
1136;SDS011;557;48.466;7.950;2023-07-20T10:27:04;21.15;;;19.73;;
1136;SDS011;557;48.466;7.950;2023-07-20T10:29:53;19.60;;;18.40;;
1136;SDS011;557;48.466;7.950;2023-07-20T10:32:42;19.10;;;18.10;;
1136;SDS011;557;48.466;7.950;2023-07-20T10:35:31;20.00;;;18.95;;
1136;SDS011;557;48.466;7.950;2023-07-20T10:38:38;19.70;;;18.60;;
1136;SDS011;557;48.466;7.950;2023-07-20T10:41:29;19.55;;;18.50;;
1136;SDS011;557;48.466;7.950;2023-07-20T10:44:20;20.08;;;18.90;;
1136;SDS011;557;48.466;7.950;2023-07-20T10:47:09;19.92;;;18.70;;
1136;SDS011;557;48.466;7.950;2023-07-20T10:49:58;19.73;;;18.52;;
1136;SDS011;557;48.466;7.950;2023-07-20T10:52:50;19.92;;;18.70;;
1136;SDS011;557;48.466;7.950;2023-07-20T10:55:53;20.33;;;19.13;;
1136;SDS011;557;48.466;7.950;2023-07-20T10:58:57;19.38;;;18.33;;
1136;SDS011;557;48.466;7.950;2023-07-20T11:01:45;20.77;;;19.40;;
1136;SDS011;557;48.466;7.950;2023-07-20T11:04:39;20.95;;;19.65;;
1136;SDS011;557;48.466;7.950;2023-07-20T11:07:36;20.52;;;19.15;;
1136;SDS011;557;48.466;7.950;2023-07-20T11:10:24;20.13;;;19.02;;
1136;SDS011;557;48.466;7.950;2023-07-20T11:13:18;20.20;;;19.05;;
1136;SDS011;557;48.466;7.950;2023-07-20T11:16:07;20.45;;;19.35;;
1136;SDS011;557;48.466;7.950;2023-07-20T11:18:54;20.63;;;19.33;;
1136;SDS011;557;48.466;7.950;2023-07-20T11:21:44;20.70;;;19.50;;
1136;SDS011;557;48.466;7.950;2023-07-20T11:24:32;20.75;;;19.50;;
1136;SDS011;557;48.466;7.950;2023-07-20T11:27:20;20.00;;;18.90;;
1136;SDS011;557;48.466;7.950;2023-07-20T11:30:15;20.65;;;19.52;;
1136;SDS011;557;48.466;7.950;2023-07-20T11:33:02;20.50;;;19.40;;
1136;SDS011;557;48.466;7.950;2023-07-20T11:35:51;21.02;;;19.90;;
1136;SDS011;557;48.466;7.950;2023-07-20T11:38:42;19.80;;;18.70;;
1136;SDS011;557;48.466;7.950;2023-07-20T11:44:30;20.52;;;19.20;;
1136;SDS011;557;48.466;7.950;2023-07-20T11:47:18;20.70;;;19.50;;
1136;SDS011;557;48.466;7.950;2023-07-20T11:50:05;20.50;;;19.40;;
1136;SDS011;557;48.466;7.950;2023-07-20T11:52:53;21.05;;;19.90;;
1136;SDS011;557;48.466;7.950;2023-07-20T11:55:42;21.10;;;19.80;;
1136;SDS011;557;48.466;7.950;2023-07-20T11:58:30;21.05;;;19.85;;
1136;SDS011;557;48.466;7.950;2023-07-20T12:01:18;20.77;;;19.58;;
1136;SDS011;557;48.466;7.950;2023-07-20T12:04:06;20.10;;;19.00;;
1136;SDS011;557;48.466;7.950;2023-07-20T12:06:53;20.50;;;19.40;;
1136;SDS011;557;48.466;7.950;2023-07-20T12:09:43;20.27;;;19.17;;
1136;SDS011;557;48.466;7.950;2023-07-20T12:12:32;21.02;;;19.83;;
1136;SDS011;557;48.466;7.950;2023-07-20T12:15:22;21.45;;;20.25;;
1136;SDS011;557;48.466;7.950;2023-07-20T12:18:11;20.52;;;19.42;;
1136;SDS011;557;48.466;7.950;2023-07-20T12:20:59;21.50;;;20.27;;
1136;SDS011;557;48.466;7.950;2023-07-20T12:23:46;21.25;;;20.05;;
1136;SDS011;557;48.466;7.950;2023-07-20T12:26:33;21.45;;;20.25;;
1136;SDS011;557;48.466;7.950;2023-07-20T12:29:22;21.75;;;20.48;;
1136;SDS011;557;48.466;7.950;2023-07-20T12:32:10;21.42;;;20.15;;
1136;SDS011;557;48.466;7.950;2023-07-20T12:34:57;21.77;;;20.40;;
1136;SDS011;557;48.466;7.950;2023-07-20T12:37:45;21.05;;;19.85;;
1136;SDS011;557;48.466;7.950;2023-07-20T12:40:34;20.77;;;19.55;;
1136;SDS011;557;48.466;7.950;2023-07-20T12:43:22;20.40;;;19.25;;
1136;SDS011;557;48.466;7.950;2023-07-20T12:46:11;20.92;;;19.67;;
1136;SDS011;557;48.466;7.950;2023-07-20T12:48:59;21.60;;;20.23;;
1136;SDS011;557;48.466;7.950;2023-07-20T12:51:46;21.02;;;19.83;;
1136;SDS011;557;48.466;7.950;2023-07-20T12:54:34;21.48;;;20.17;;
1136;SDS011;557;48.466;7.950;2023-07-20T12:57:21;21.35;;;20.10;;
1136;SDS011;557;48.466;7.950;2023-07-20T13:00:09;20.27;;;19.17;;
1136;SDS011;557;48.466;7.950;2023-07-20T13:02:59;20.50;;;19.35;;
1136;SDS011;557;48.466;7.950;2023-07-20T13:05:50;20.55;;;19.35;;
1136;SDS011;557;48.466;7.950;2023-07-20T13:08:37;20.88;;;19.58;;
1136;SDS011;557;48.466;7.950;2023-07-20T13:11:25;21.08;;;19.88;;
1136;SDS011;557;48.466;7.950;2023-07-20T13:14:12;20.80;;;19.70;;
1136;SDS011;557;48.466;7.950;2023-07-20T13:16:59;20.38;;;19.25;;
1136;SDS011;557;48.466;7.950;2023-07-20T13:19:49;20.52;;;19.42;;
1136;SDS011;557;48.466;7.950;2023-07-20T13:22:38;20.27;;;19.08;;
1136;SDS011;557;48.466;7.950;2023-07-20T13:25:25;21.23;;;19.92;;
1136;SDS011;557;48.466;7.950;2023-07-20T13:28:14;20.08;;;18.98;;
1136;SDS011;557;48.466;7.950;2023-07-20T13:31:01;20.45;;;19.35;;
1136;SDS011;557;48.466;7.950;2023-07-20T13:33:49;20.92;;;19.63;;
1136;SDS011;557;48.466;7.950;2023-07-20T13:36:37;20.67;;;19.50;;
1136;SDS011;557;48.466;7.950;2023-07-20T13:39:25;20.55;;;19.35;;
1136;SDS011;557;48.466;7.950;2023-07-20T13:42:14;20.65;;;19.45;;
1136;SDS011;557;48.466;7.950;2023-07-20T13:45:01;20.30;;;19.20;;
1136;SDS011;557;48.466;7.950;2023-07-20T13:47:49;20.77;;;19.58;;
1136;SDS011;557;48.466;7.950;2023-07-20T13:50:40;21.02;;;19.63;;
1136;SDS011;557;48.466;7.950;2023-07-20T13:53:33;20.75;;;19.55;;
1136;SDS011;557;48.466;7.950;2023-07-20T13:56:27;20.73;;;19.52;;
1136;SDS011;557;48.466;7.950;2023-07-20T13:59:15;20.55;;;19.45;;
1136;SDS011;557;48.466;7.950;2023-07-20T14:02:05;20.15;;;18.95;;
1136;SDS011;557;48.466;7.950;2023-07-20T14:04:52;20.00;;;18.90;;
1136;SDS011;557;48.466;7.950;2023-07-20T14:07:41;21.00;;;19.63;;
1136;SDS011;557;48.466;7.950;2023-07-20T14:10:30;20.65;;;19.55;;
1136;SDS011;557;48.466;7.950;2023-07-20T14:13:17;21.27;;;20.08;;
1136;SDS011;557;48.466;7.950;2023-07-20T14:16:05;21.35;;;20.15;;
1136;SDS011;557;48.466;7.950;2023-07-20T14:18:52;19.90;;;18.80;;
1136;SDS011;557;48.466;7.950;2023-07-20T14:21:40;20.95;;;19.80;;
1136;SDS011;557;48.466;7.950;2023-07-20T14:24:27;20.63;;;19.52;;
1136;SDS011;557;48.466;7.950;2023-07-20T14:27:16;21.13;;;19.92;;
1136;SDS011;557;48.466;7.950;2023-07-20T14:30:04;20.75;;;19.63;;
1136;SDS011;557;48.466;7.950;2023-07-20T14:32:52;20.50;;;19.40;;
1136;SDS011;557;48.466;7.950;2023-07-20T14:35:39;21.38;;;20.13;;
1136;SDS011;557;48.466;7.950;2023-07-20T14:38:26;21.10;;;19.80;;
1136;SDS011;557;48.466;7.950;2023-07-20T14:41:14;21.40;;;20.20;;
1136;SDS011;557;48.466;7.950;2023-07-20T14:44:02;20.63;;;19.48;;
1136;SDS011;557;48.466;7.950;2023-07-20T14:46:50;20.50;;;19.30;;
1136;SDS011;557;48.466;7.950;2023-07-20T14:49:38;21.38;;;20.17;;
1136;SDS011;557;48.466;7.950;2023-07-20T14:52:25;20.95;;;19.85;;
1136;SDS011;557;48.466;7.950;2023-07-20T14:55:12;21.00;;;19.90;;
1136;SDS011;557;48.466;7.950;2023-07-20T14:58:00;20.98;;;19.77;;
1136;SDS011;557;48.466;7.950;2023-07-20T15:00:49;20.80;;;19.60;;
1136;SDS011;557;48.466;7.950;2023-07-20T15:03:37;20.67;;;19.58;;
1136;SDS011;557;48.466;7.950;2023-07-20T15:06:24;20.55;;;19.35;;
1136;SDS011;557;48.466;7.950;2023-07-20T15:09:12;21.38;;;20.10;;
1136;SDS011;557;48.466;7.950;2023-07-20T15:11:59;20.67;;;19.48;;
1136;SDS011;557;48.466;7.950;2023-07-20T15:14:49;20.73;;;19.50;;
1136;SDS011;557;48.466;7.950;2023-07-20T15:17:50;21.20;;;20.00;;
1136;SDS011;557;48.466;7.950;2023-07-20T15:20:38;20.80;;;19.65;;
1136;SDS011;557;48.466;7.950;2023-07-20T15:23:25;21.02;;;19.83;;
1136;SDS011;557;48.466;7.950;2023-07-20T15:26:13;21.90;;;20.70;;
1136;SDS011;557;48.466;7.950;2023-07-20T15:29:00;20.45;;;19.35;;
1136;SDS011;557;48.466;7.950;2023-07-20T15:31:47;21.10;;;19.80;;
1136;SDS011;557;48.466;7.950;2023-07-20T15:34:36;21.40;;;20.20;;
1136;SDS011;557;48.466;7.950;2023-07-20T15:37:23;21.20;;;20.10;;
1136;SDS011;557;48.466;7.950;2023-07-20T15:40:11;21.13;;;19.92;;
1136;SDS011;557;48.466;7.950;2023-07-20T15:42:59;21.38;;;20.08;;
1136;SDS011;557;48.466;7.950;2023-07-20T15:45:46;22.00;;;20.80;;
1136;SDS011;557;48.466;7.950;2023-07-20T15:48:35;21.40;;;20.20;;
1136;SDS011;557;48.466;7.950;2023-07-20T15:51:23;21.90;;;20.70;;
1136;SDS011;557;48.466;7.950;2023-07-20T15:54:11;22.30;;;21.05;;
1136;SDS011;557;48.466;7.950;2023-07-20T15:56:59;21.65;;;20.45;;
1136;SDS011;557;48.466;7.950;2023-07-20T15:59:47;21.65;;;20.35;;
1136;SDS011;557;48.466;7.950;2023-07-20T16:02:34;21.65;;;20.33;;
1136;SDS011;557;48.466;7.950;2023-07-20T16:05:22;21.10;;;20.00;;
1136;SDS011;557;48.466;7.950;2023-07-20T16:08:11;20.63;;;19.52;;
1136;SDS011;557;48.466;7.950;2023-07-20T16:10:58;20.60;;;19.50;;
1136;SDS011;557;48.466;7.950;2023-07-20T16:13:45;20.88;;;19.67;;
1136;SDS011;557;48.466;7.950;2023-07-20T16:16:33;20.73;;;19.63;;
1136;SDS011;557;48.466;7.950;2023-07-20T16:19:21;20.75;;;19.55;;
1136;SDS011;557;48.466;7.950;2023-07-20T16:22:09;21.35;;;20.23;;
1136;SDS011;557;48.466;7.950;2023-07-20T16:24:58;20.98;;;19.77;;
1136;SDS011;557;48.466;7.950;2023-07-20T16:27:46;20.55;;;19.45;;
1136;SDS011;557;48.466;7.950;2023-07-20T16:30:33;20.45;;;19.35;;
1136;SDS011;557;48.466;7.950;2023-07-20T16:33:20;21.05;;;19.85;;
1136;SDS011;557;48.466;7.950;2023-07-20T16:36:08;22.50;;;21.10;;
1136;SDS011;557;48.466;7.950;2023-07-20T16:38:56;21.27;;;20.17;;
1136;SDS011;557;48.466;7.950;2023-07-20T16:41:44;21.13;;;20.02;;
1136;SDS011;557;48.466;7.950;2023-07-20T16:44:32;21.40;;;20.10;;
1136;SDS011;557;48.466;7.950;2023-07-20T16:47:19;20.75;;;19.65;;
1136;SDS011;557;48.466;7.950;2023-07-20T16:50:10;21.20;;;20.00;;
1136;SDS011;557;48.466;7.950;2023-07-20T16:52:57;20.75;;;19.45;;
1136;SDS011;557;48.466;7.950;2023-07-20T16:55:47;20.10;;;19.00;;
1136;SDS011;557;48.466;7.950;2023-07-20T16:58:38;20.10;;;19.00;;
1136;SDS011;557;48.466;7.950;2023-07-20T17:01:25;21.35;;;20.15;;
1136;SDS011;557;48.466;7.950;2023-07-20T17:04:12;21.20;;;20.00;;
1136;SDS011;557;48.466;7.950;2023-07-20T17:07:00;20.90;;;19.70;;
1136;SDS011;557;48.466;7.950;2023-07-20T17:09:48;20.50;;;19.30;;
1136;SDS011;557;48.466;7.950;2023-07-20T17:12:36;20.77;;;19.58;;